РПИ Ашхабад

Руководство

Evgeny Vygornitsky*

Куратор
Инструкторы РПИ
Evgeny Vygornitsky (Supervisor)
Входит в состав
Центральная Азия

Диспетчеры РПИ

Диспетчер Рейтинг Допуски *
begench atayev Unknown UTAA_GND

Аэропорты РПИ

ICAO Город Название Погода
UTAA Ашхабад Ашхабад UTAA 250700Z 31006KT 270V360 9999 FEW050CB BKN050 OVC100 22/08 Q1018 R88/70D NOSIG
UTAM Мары Мары UTAM 250700Z 26010KT 9999 -SHRA SCT060CB BKN060 OVC100 20/14 Q1018 R88/19//65 NOSIG